Time;durP1;ratioP1;P1;durP2;ratioP2;P2;SDS_P1;SDS_P2;PMS_P1;PMS_P2;Temp;Humidity;BMP_temperature;BMP_pressure;BME280_temperature;BME280_humidity;BME280_pressure;Samples;Min_cycle;Max_cycle;Signal;HPM_P1;HPM_P2
2022/02/12 00:01:03;;;;;;;3.45;1.00;;;;;;;;;;4432530;32;20101;-54
2022/02/12 00:03:31;;;;;;;2.42;0.80;;;;;;;;;;4440871;32;20460;-54
2022/02/12 00:06:00;;;;;;;4.45;0.90;;;;;;;;;;4433049;32;20432;-53
2022/02/12 00:08:28;;;;;;;2.28;0.80;;;;;;;;;;4443354;32;20045;-52
2022/02/12 00:10:56;;;;;;;3.95;0.90;;;;;;;;;;4437460;32;20058;-53
2022/02/12 00:13:25;;;;;;;4.80;1.08;;;;;;;;;;4434424;32;20428;-52
2022/02/12 00:15:53;;;;;;;3.40;0.90;;;;;;;;;;4441772;32;20042;-54
2022/02/12 00:18:21;;;;;;;3.25;0.80;;;;;;;;;;4440786;32;22448;-55
2022/02/12 00:20:50;;;;;;;3.00;0.80;;;;;;;;;;4445760;32;20436;-55
2022/02/12 00:23:18;;;;;;;3.97;0.80;;;;;;;;;;4444400;32;20130;-51
2022/02/12 00:25:47;;;;;;;3.97;1.00;;;;;;;;;;4440124;32;20421;-54
2022/02/12 00:28:15;;;;;;;2.87;0.95;;;;;;;;;;4440887;32;20045;-53
2022/02/12 00:30:43;;;;;;;3.58;0.85;;;;;;;;;;4436932;32;20053;-55
2022/02/12 00:33:12;;;;;;;2.95;0.75;;;;;;;;;;4434924;32;20458;-54
2022/02/12 00:35:40;;;;;;;6.07;1.00;;;;;;;;;;4441115;32;20080;-52
2022/02/12 00:38:08;;;;;;;4.75;0.98;;;;;;;;;;4434837;32;20034;-53
2022/02/12 00:40:37;;;;;;;5.57;0.75;;;;;;;;;;4428158;32;20372;-54
2022/02/12 00:43:05;;;;;;;4.85;1.02;;;;;;;;;;4432720;32;20035;-56
2022/02/12 00:45:33;;;;;;;5.10;1.00;;;;;;;;;;4439987;32;20042;-54
2022/02/12 00:48:02;;;;;;;4.70;0.98;;;;;;;;;;4431790;32;20057;-54
2022/02/12 00:50:30;;;;;;;3.25;0.70;;;;;;;;;;4431179;32;20042;-54
2022/02/12 00:52:58;;;;;;;3.83;0.93;;;;;;;;;;4423458;32;20042;-54
2022/02/12 00:55:27;;;;;;;4.25;1.10;;;;;;;;;;4433879;32;20082;-55
2022/02/12 00:57:55;;;;;;;2.92;0.75;;;;;;;;;;4442868;32;20053;-55
2022/02/12 01:00:23;;;;;;;5.43;0.85;;;;;;;;;;4438022;32;20046;-53
2022/02/12 01:02:52;;;;;;;3.97;0.93;;;;;;;;;;4439649;32;20086;-55
2022/02/12 01:05:20;;;;;;;3.30;0.90;;;;;;;;;;4439480;32;20076;-55
2022/02/12 01:07:48;;;;;;;3.35;0.75;;;;;;;;;;4443178;32;20447;-53
2022/02/12 01:10:17;;;;;;;1.15;0.60;;;;;;;;;;4436412;32;20030;-54
2022/02/12 01:12:45;;;;;;;4.47;0.82;;;;;;;;;;4443024;32;20096;-56
2022/02/12 01:15:14;;;;;;;5.10;0.88;;;;;;;;;;4439965;32;20583;-52
2022/02/12 01:17:43;;;;;;;2.15;0.62;;;;;;;;;;4443685;32;20098;-52
2022/02/12 01:20:12;;;;;;;4.57;0.90;;;;;;;;;;4436856;32;20042;-54
2022/02/12 01:22:40;;;;;;;3.97;0.95;;;;;;;;;;4443765;32;20105;-55
2022/02/12 01:25:10;;;;;;;4.90;1.05;;;;;;;;;;4442171;32;20041;-55
2022/02/12 01:27:38;;;;;;;3.70;0.80;;;;;;;;;;4438797;32;20033;-54
2022/02/12 01:30:07;;;;;;;4.53;0.98;;;;;;;;;;4431870;32;20071;-52
2022/02/12 01:32:36;;;;;;;3.00;0.70;;;;;;;;;;4439975;32;20030;-55
2022/02/12 01:35:04;;;;;;;3.05;1.00;;;;;;;;;;4435397;32;20089;-55
2022/02/12 01:37:33;;;;;;;5.40;1.23;;;;;;;;;;4436942;32;20179;-55
2022/02/12 01:40:01;;;;;;;2.53;0.65;;;;;;;;;;4433448;32;20046;-53
2022/02/12 01:42:29;;;;;;;3.40;0.82;;;;;;;;;;4441412;32;20122;-53
2022/02/12 01:45:01;;;;;;;4.18;0.90;;;;;;;;;;4439885;32;20075;-55
2022/02/12 01:47:30;;;;;;;6.30;0.93;;;;;;;;;;4444387;32;20048;-52
2022/02/12 01:49:59;;;;;;;3.42;0.88;;;;;;;;;;4426849;32;20054;-56
2022/02/12 01:52:29;;;;;;;2.05;0.77;;;;;;;;;;4434844;32;20068;-53
2022/02/12 01:55:00;;;;;;;3.08;0.82;;;;;;;;;;4435166;32;20025;-55
2022/02/12 01:57:28;;;;;;;2.12;0.70;;;;;;;;;;4435904;32;20465;-54
2022/02/12 01:59:58;;;;;;;3.58;0.93;;;;;;;;;;4442559;32;20105;-54
2022/02/12 02:02:26;;;;;;;1.50;0.70;;;;;;;;;;4439130;32;20104;-55
2022/02/12 02:04:55;;;;;;;3.08;0.73;;;;;;;;;;4434763;32;20049;-53
2022/02/12 02:07:24;;;;;;;4.60;1.08;;;;;;;;;;4436368;32;20056;-54
2022/02/12 02:09:52;;;;;;;3.40;0.70;;;;;;;;;;4437224;32;20050;-56
2022/02/12 02:12:21;;;;;;;3.20;0.70;;;;;;;;;;4438236;32;20060;-55
2022/02/12 02:14:49;;;;;;;3.28;1.05;;;;;;;;;;4429510;32;20050;-55
2022/02/12 02:17:18;;;;;;;1.50;0.60;;;;;;;;;;4432377;32;20041;-54
2022/02/12 02:19:47;;;;;;;3.45;0.70;;;;;;;;;;4444088;32;20037;-53
2022/02/12 02:22:16;;;;;;;4.43;0.70;;;;;;;;;;4440728;32;20429;-53
2022/02/12 02:24:45;;;;;;;4.93;0.73;;;;;;;;;;4429822;32;20522;-52
2022/02/12 02:27:15;;;;;;;3.10;0.80;;;;;;;;;;4437417;32;20041;-55
2022/02/12 02:29:44;;;;;;;1.37;0.55;;;;;;;;;;4442549;32;20060;-56
2022/02/12 02:32:13;;;;;;;2.92;0.88;;;;;;;;;;4441461;32;20155;-54
2022/02/12 02:34:49;;;;;;;3.87;1.00;;;;;;;;;;4441223;32;20037;-55
2022/02/12 02:37:19;;;;;;;2.28;0.57;;;;;;;;;;4429839;32;20379;-55
2022/02/12 02:39:47;;;;;;;3.30;0.80;;;;;;;;;;4442756;32;20042;-55
2022/02/12 02:42:16;;;;;;;2.35;0.60;;;;;;;;;;4438206;32;20057;-55
2022/02/12 02:44:44;;;;;;;2.10;0.90;;;;;;;;;;4439138;32;20103;-53
2022/02/12 02:50:02;;;;;;;3.90;0.95;;;;;;;;;;4433340;32;20116;-53
2022/02/12 02:58:06;;;;;;;2.05;0.70;;;;;;;;;;4433175;32;20054;-56
2022/02/12 03:00:35;;;;;;;2.30;0.60;;;;;;;;;;4439340;32;20540;-53
2022/02/12 03:03:04;;;;;;;3.80;1.10;;;;;;;;;;4434492;32;20101;-55
2022/02/12 03:05:33;;;;;;;2.80;0.82;;;;;;;;;;4436818;32;20034;-54
2022/02/12 03:08:01;;;;;;;4.25;0.80;;;;;;;;;;4438602;32;20037;-54
2022/02/12 03:10:29;;;;;;;4.10;0.90;;;;;;;;;;4437512;32;20352;-52
2022/02/12 03:12:59;;;;;;;2.58;0.70;;;;;;;;;;4439597;32;20104;-54
2022/02/12 03:15:28;;;;;;;5.18;0.88;;;;;;;;;;4427879;32;20038;-53
2022/02/12 03:17:56;;;;;;;5.32;1.00;;;;;;;;;;4436781;32;20042;-56
2022/02/12 03:20:24;;;;;;;3.58;0.80;;;;;;;;;;4438199;32;20038;-55
2022/02/12 03:22:53;;;;;;;3.83;1.00;;;;;;;;;;4437320;32;20042;-55
2022/02/12 03:25:21;;;;;;;3.15;0.90;;;;;;;;;;4437821;32;20172;-54
2022/02/12 03:27:53;;;;;;;3.62;0.95;;;;;;;;;;4437766;32;20025;-54
2022/02/12 03:30:22;;;;;;;2.70;0.82;;;;;;;;;;4438335;32;20038;-53
2022/02/12 03:32:50;;;;;;;5.35;1.10;;;;;;;;;;4434536;32;20034;-54
2022/02/12 03:35:18;;;;;;;2.95;0.90;;;;;;;;;;4453041;32;20033;-54
2022/02/12 03:37:47;;;;;;;5.10;0.90;;;;;;;;;;4453413;32;20062;-55
2022/02/12 03:40:15;;;;;;;5.97;0.90;;;;;;;;;;4423782;32;20085;-56
2022/02/12 03:42:43;;;;;;;5.78;1.20;;;;;;;;;;4434931;32;20100;-55
2022/02/12 03:45:12;;;;;;;3.05;0.90;;;;;;;;;;4423226;32;20042;-56
2022/02/12 03:47:40;;;;;;;7.03;1.33;;;;;;;;;;4438544;32;20052;-56
2022/02/12 03:50:08;;;;;;;5.87;0.90;;;;;;;;;;4437765;32;20420;-56
2022/02/12 03:52:37;;;;;;;6.37;1.00;;;;;;;;;;4437799;32;20072;-56
2022/02/12 03:55:05;;;;;;;5.00;1.08;;;;;;;;;;4438239;32;20083;-56
2022/02/12 03:57:34;;;;;;;6.72;1.30;;;;;;;;;;4438354;32;20442;-55
2022/02/12 04:00:11;;;;;;;3.40;0.95;;;;;;;;;;4438585;32;20051;-53
2022/02/12 04:02:40;;;;;;;3.60;0.93;;;;;;;;;;4438216;32;20037;-56
2022/02/12 04:05:10;;;;;;;3.80;0.80;;;;;;;;;;4435701;32;20041;-53
2022/02/12 04:07:40;;;;;;;4.65;1.08;;;;;;;;;;4437886;32;20063;-56
2022/02/12 04:10:12;;;;;;;3.22;0.88;;;;;;;;;;4436527;32;20034;-53
2022/02/12 04:12:41;;;;;;;3.85;0.85;;;;;;;;;;4437912;32;20043;-52
2022/02/12 04:15:10;;;;;;;3.00;0.85;;;;;;;;;;4438072;32;20042;-56
2022/02/12 04:17:39;;;;;;;4.47;0.90;;;;;;;;;;4435585;32;20052;-55
2022/02/12 04:20:09;;;;;;;3.20;0.85;;;;;;;;;;4443265;32;20086;-56
2022/02/12 04:22:38;;;;;;;3.90;0.70;;;;;;;;;;4451820;32;20042;-55
2022/02/12 04:25:08;;;;;;;3.67;1.02;;;;;;;;;;4453220;32;20477;-55
2022/02/12 04:27:36;;;;;;;3.05;0.85;;;;;;;;;;4453356;32;20057;-55
2022/02/12 04:30:06;;;;;;;4.65;0.75;;;;;;;;;;4433880;32;20451;-56
2022/02/12 04:32:34;;;;;;;2.45;0.90;;;;;;;;;;4422829;32;20038;-55
2022/02/12 04:35:04;;;;;;;2.97;0.70;;;;;;;;;;4422203;32;20038;-54
2022/02/12 04:37:32;;;;;;;7.47;1.25;;;;;;;;;;4423192;32;20072;-56
2022/02/12 04:40:01;;;;;;;4.68;0.95;;;;;;;;;;4436323;32;20083;-55
2022/02/12 04:42:30;;;;;;;2.90;0.60;;;;;;;;;;4437566;32;20038;-55
2022/02/12 04:44:59;;;;;;;2.10;0.90;;;;;;;;;;4436145;32;20045;-53
2022/02/12 04:47:29;;;;;;;3.65;0.60;;;;;;;;;;4435545;32;20417;-56
2022/02/12 04:49:57;;;;;;;1.58;0.77;;;;;;;;;;4435244;32;20041;-56
2022/02/12 04:52:26;;;;;;;1.75;0.60;;;;;;;;;;4435809;32;20368;-56
2022/02/12 04:54:54;;;;;;;1.77;0.80;;;;;;;;;;4437318;32;20041;-54
2022/02/12 04:57:23;;;;;;;3.87;0.73;;;;;;;;;;4437647;32;20037;-53
2022/02/12 04:59:51;;;;;;;3.47;0.80;;;;;;;;;;4434527;32;20042;-54
2022/02/12 05:02:19;;;;;;;1.73;0.50;;;;;;;;;;4435683;32;20042;-53
2022/02/12 05:04:47;;;;;;;2.50;0.68;;;;;;;;;;4437417;32;20030;-54
2022/02/12 05:07:16;;;;;;;2.75;0.60;;;;;;;;;;4437751;32;20061;-55
2022/02/12 05:09:44;;;;;;;1.27;0.57;;;;;;;;;;4439851;32;20401;-56
2022/02/12 05:12:13;;;;;;;2.50;0.85;;;;;;;;;;4440716;32;20056;-57
2022/02/12 05:14:41;;;;;;;1.62;0.57;;;;;;;;;;4440275;32;20101;-52
2022/02/12 05:17:09;;;;;;;1.80;0.60;;;;;;;;;;4440001;32;20120;-55
2022/02/12 05:19:40;;;;;;;2.08;0.77;;;;;;;;;;4440314;32;20052;-56
2022/02/12 05:22:08;;;;;;;3.03;0.75;;;;;;;;;;4440263;32;20049;-56
2022/02/12 05:24:37;;;;;;;2.20;0.60;;;;;;;;;;4439376;32;20491;-55
2022/02/12 05:27:05;;;;;;;2.62;0.90;;;;;;;;;;4439792;32;20092;-55
2022/02/12 05:29:34;;;;;;;2.95;0.65;;;;;;;;;;4428744;32;20050;-56
2022/02/12 05:32:02;;;;;;;1.83;0.70;;;;;;;;;;4423442;32;20047;-55
2022/02/12 05:34:31;;;;;;;1.45;0.52;;;;;;;;;;4423914;32;20378;-56
2022/02/12 05:36:59;;;;;;;1.92;0.60;;;;;;;;;;4424187;32;20026;-56
2022/02/12 05:39:27;;;;;;;1.73;0.70;;;;;;;;;;4425079;32;20053;-53
2022/02/12 05:41:56;;;;;;;1.92;0.55;;;;;;;;;;4439295;32;20095;-56
2022/02/12 05:44:26;;;;;;;3.00;0.73;;;;;;;;;;4455722;32;20077;-52
2022/02/12 05:46:54;;;;;;;1.35;0.70;;;;;;;;;;4437417;32;20037;-56
2022/02/12 05:49:23;;;;;;;1.37;0.70;;;;;;;;;;4438984;32;20396;-56
2022/02/12 05:51:51;;;;;;;1.33;0.60;;;;;;;;;;4439945;32;20046;-56
2022/02/12 05:54:19;;;;;;;1.40;0.60;;;;;;;;;;4439121;32;20052;-56
2022/02/12 05:56:49;;;;;;;1.17;0.70;;;;;;;;;;4439658;32;20034;-56
2022/02/12 05:59:19;;;;;;;1.80;0.62;;;;;;;;;;4439078;32;20037;-53
2022/02/12 06:01:47;;;;;;;1.62;0.60;;;;;;;;;;4439527;32;20042;-53
2022/02/12 06:04:16;;;;;;;2.65;0.60;;;;;;;;;;4439558;32;20111;-56
2022/02/12 06:06:44;;;;;;;1.50;0.60;;;;;;;;;;4440161;32;20134;-53
2022/02/12 06:09:12;;;;;;;1.05;0.50;;;;;;;;;;4439764;32;20105;-53
2022/02/12 06:11:41;;;;;;;1.37;0.50;;;;;;;;;;4437375;32;20046;-56
2022/02/12 06:14:09;;;;;;;0.73;0.50;;;;;;;;;;4439169;32;20093;-56
2022/02/12 06:16:39;;;;;;;1.52;0.70;;;;;;;;;;4439521;32;20045;-52
2022/02/12 06:19:07;;;;;;;0.90;0.52;;;;;;;;;;4440024;32;20053;-54
2022/02/12 06:21:35;;;;;;;3.05;0.70;;;;;;;;;;4440012;32;20066;-56
2022/02/12 06:24:04;;;;;;;1.45;0.60;;;;;;;;;;4439895;32;20037;-55
2022/02/12 06:26:32;;;;;;;1.23;0.70;;;;;;;;;;4439627;32;20029;-55
2022/02/12 06:29:00;;;;;;;1.42;0.73;;;;;;;;;;4439265;32;20050;-55
2022/02/12 06:31:29;;;;;;;1.12;0.50;;;;;;;;;;4439994;32;20034;-56
2022/02/12 06:33:59;;;;;;;2.42;0.65;;;;;;;;;;4437956;32;20050;-54
2022/02/12 06:36:27;;;;;;;2.08;0.60;;;;;;;;;;4439094;32;20056;-53
2022/02/12 06:39:00;;;;;;;1.50;0.87;;;;;;;;;;4439174;32;20041;-53
2022/02/12 06:41:29;;;;;;;3.25;0.80;;;;;;;;;;4439318;32;20156;-55
2022/02/12 06:43:57;;;;;;;1.73;0.93;;;;;;;;;;4436711;32;20033;-53
2022/02/12 06:46:26;;;;;;;2.62;0.73;;;;;;;;;;4439180;32;20100;-56
2022/02/12 06:48:54;;;;;;;1.75;0.75;;;;;;;;;;4438226;32;20052;-56
2022/02/12 06:51:22;;;;;;;1.98;0.90;;;;;;;;;;4439696;32;20098;-53
2022/02/12 06:53:51;;;;;;;2.42;0.80;;;;;;;;;;4438231;32;20038;-52
2022/02/12 06:56:19;;;;;;;3.20;0.90;;;;;;;;;;4439522;32;20465;-56
2022/02/12 06:58:47;;;;;;;1.60;0.68;;;;;;;;;;4436688;32;20091;-53
2022/02/12 07:01:15;;;;;;;3.45;0.98;;;;;;;;;;4437695;32;20123;-53
2022/02/12 07:03:44;;;;;;;0.98;0.75;;;;;;;;;;4439181;32;20439;-54
2022/02/12 07:06:12;;;;;;;7.12;1.10;;;;;;;;;;4447961;32;20037;-54
2022/02/12 07:08:41;;;;;;;2.65;1.10;;;;;;;;;;4454165;32;20041;-52
2022/02/12 07:11:09;;;;;;;2.95;0.90;;;;;;;;;;4452500;32;20042;-55
2022/02/12 07:13:38;;;;;;;1.45;0.73;;;;;;;;;;4454341;32;20059;-54
2022/02/12 07:16:06;;;;;;;2.40;1.10;;;;;;;;;;4452710;32;20076;-55
2022/02/12 07:18:34;;;;;;;4.18;0.98;;;;;;;;;;4454177;32;20092;-51
2022/02/12 07:21:03;;;;;;;3.10;0.70;;;;;;;;;;4453916;32;20074;-54
2022/02/12 07:23:31;;;;;;;2.62;0.80;;;;;;;;;;4454043;32;20038;-54
2022/02/12 07:25:59;;;;;;;1.92;1.00;;;;;;;;;;4453865;32;20048;-54
2022/02/12 07:28:29;;;;;;;1.33;0.73;;;;;;;;;;4453366;32;20063;-50
2022/02/12 07:30:58;;;;;;;1.77;0.75;;;;;;;;;;4454045;32;20042;-51
2022/02/12 07:33:26;;;;;;;1.33;0.70;;;;;;;;;;4449718;32;20393;-55
2022/02/12 07:35:55;;;;;;;1.85;0.60;;;;;;;;;;4441742;32;20038;-54
2022/02/12 07:38:23;;;;;;;1.23;0.70;;;;;;;;;;4438459;32;20053;-53
2022/02/12 07:40:51;;;;;;;2.37;0.50;;;;;;;;;;4428511;32;20049;-54
2022/02/12 07:43:20;;;;;;;2.95;0.60;;;;;;;;;;4437711;32;20424;-54
2022/02/12 07:45:48;;;;;;;2.10;0.80;;;;;;;;;;4438466;32;20453;-54
2022/02/12 07:48:17;;;;;;;2.85;0.68;;;;;;;;;;4437944;32;20101;-52
2022/02/12 07:50:45;;;;;;;1.95;0.60;;;;;;;;;;4438422;32;20405;-54
2022/02/12 07:53:14;;;;;;;1.65;0.68;;;;;;;;;;4437983;32;20079;-54
2022/02/12 07:55:42;;;;;;;1.37;0.60;;;;;;;;;;4438414;32;20084;-51
2022/02/12 07:58:13;;;;;;;1.87;0.70;;;;;;;;;;4436526;32;20082;-55
2022/02/12 08:00:41;;;;;;;2.35;0.70;;;;;;;;;;4437425;32;20052;-52
2022/02/12 08:03:09;;;;;;;1.67;0.80;;;;;;;;;;4437963;32;20038;-56
2022/02/12 08:05:38;;;;;;;1.12;0.65;;;;;;;;;;4433838;32;20053;-55
2022/02/12 08:08:06;;;;;;;1.25;0.80;;;;;;;;;;4433642;32;20093;-53
2022/02/12 08:13:22;;;;;;;2.15;0.80;;;;;;;;;;4438091;32;20049;-53
2022/02/12 08:15:51;;;;;;;3.05;0.90;;;;;;;;;;4437234;32;20331;-52
2022/02/12 08:18:21;;;;;;;2.53;0.60;;;;;;;;;;4438078;32;20096;-53
2022/02/12 08:20:49;;;;;;;1.75;0.70;;;;;;;;;;4437804;32;20418;-52
2022/02/12 08:23:18;;;;;;;2.72;0.82;;;;;;;;;;4437953;32;20048;-52
2022/02/12 08:25:46;;;;;;;1.55;0.70;;;;;;;;;;4437378;32;20128;-55
2022/02/12 08:28:14;;;;;;;2.00;0.90;;;;;;;;;;4436867;32;20059;-54
2022/02/12 08:30:43;;;;;;;1.27;0.60;;;;;;;;;;4435350;32;20060;-54
2022/02/12 08:33:12;;;;;;;2.50;0.70;;;;;;;;;;4434727;32;20061;-54
2022/02/12 08:35:54;;;;;;;3.08;0.68;;;;;;;;;;4436791;32;20033;-55
2022/02/12 08:38:23;;;;;;;2.28;0.80;;;;;;;;;;4436828;32;20033;-55
2022/02/12 08:40:52;;;;;;;3.62;1.15;;;;;;;;;;4437349;32;20038;-56
2022/02/12 08:43:20;;;;;;;3.70;1.20;;;;;;;;;;4437247;32;20023;-53
2022/02/12 08:45:49;;;;;;;4.15;1.23;;;;;;;;;;4422978;32;20034;-56
2022/02/12 08:48:17;;;;;;;3.45;1.00;;;;;;;;;;4440693;32;20325;-55
2022/02/12 08:50:46;;;;;;;3.95;1.20;;;;;;;;;;4453186;32;20081;-55
2022/02/12 08:53:16;;;;;;;2.92;1.05;;;;;;;;;;4451609;32;20064;-55
2022/02/12 08:55:46;;;;;;;3.90;1.23;;;;;;;;;;4426194;32;20492;-54
2022/02/12 08:58:15;;;;;;;4.28;1.20;;;;;;;;;;4446016;32;20033;-54
2022/02/12 09:00:43;;;;;;;5.00;1.25;;;;;;;;;;4453085;32;20034;-55
2022/02/12 09:03:13;;;;;;;6.40;1.45;;;;;;;;;;4453138;32;20034;-54
2022/02/12 09:05:42;;;;;;;15.05;1.45;;;;;;;;;;4451751;32;20037;-53
2022/02/12 09:08:11;;;;;;;3.95;1.27;;;;;;;;;;4452809;32;20037;-55
2022/02/12 09:10:40;;;;;;;3.03;1.30;;;;;;;;;;4452833;32;20100;-54
2022/02/12 09:13:10;;;;;;;5.28;1.37;;;;;;;;;;4453039;32;20033;-55
2022/02/12 09:15:39;;;;;;;3.00;1.23;;;;;;;;;;4453064;32;20043;-54
2022/02/12 09:18:09;;;;;;;6.10;1.35;;;;;;;;;;4451239;32;20047;-55
2022/02/12 09:20:38;;;;;;;4.75;1.40;;;;;;;;;;4452525;32;20034;-56
2022/02/12 09:23:09;;;;;;;4.53;1.60;;;;;;;;;;4452865;32;20042;-56
2022/02/12 09:25:37;;;;;;;5.95;1.52;;;;;;;;;;4453151;32;20512;-54
2022/02/12 09:28:06;;;;;;;6.00;2.03;;;;;;;;;;4451176;32;20077;-55
2022/02/12 09:30:34;;;;;;;5.78;1.50;;;;;;;;;;4451200;32;20057;-56
2022/02/12 09:33:02;;;;;;;7.28;1.77;;;;;;;;;;4437627;32;20477;-55
2022/02/12 09:35:53;;;;;;;8.10;2.05;;;;;;;;;;4437465;32;20374;-53
2022/02/12 09:38:22;;;;;;;5.93;1.75;;;;;;;;;;4436850;32;20046;-55
2022/02/12 09:40:51;;;;;;;6.18;1.95;;;;;;;;;;4438904;32;20086;-54
2022/02/12 09:43:22;;;;;;;5.60;1.75;;;;;;;;;;4443635;32;20056;-55
2022/02/12 09:46:11;;;;;;;7.28;1.77;;;;;;;;;;4419966;32;20376;-56
2022/02/12 09:48:40;;;;;;;4.57;1.73;;;;;;;;;;4411612;32;20055;-56
2022/02/12 09:51:10;;;;;;;6.87;2.00;;;;;;;;;;4421291;32;20355;-55
2022/02/12 09:53:38;;;;;;;4.25;1.75;;;;;;;;;;4424416;32;20372;-54
2022/02/12 09:56:06;;;;;;;7.75;1.98;;;;;;;;;;4445281;32;20529;-55
2022/02/12 09:58:35;;;;;;;6.47;2.08;;;;;;;;;;4424612;32;20440;-55
2022/02/12 10:01:04;;;;;;;8.35;2.08;;;;;;;;;;4424809;32;20042;-55
2022/02/12 10:03:34;;;;;;;7.55;1.90;;;;;;;;;;4434705;32;20046;-54
2022/02/12 10:06:04;;;;;;;7.05;1.73;;;;;;;;;;4434011;32;20451;-56
2022/02/12 10:08:37;;;;;;;8.30;2.22;;;;;;;;;;4439851;32;20046;-54
2022/02/12 10:11:16;;;;;;;8.60;2.20;;;;;;;;;;4439400;32;20055;-55
2022/02/12 10:13:45;;;;;;;9.13;2.75;;;;;;;;;;4437725;32;20039;-53
2022/02/12 10:16:13;;;;;;;9.07;1.92;;;;;;;;;;4446975;32;20049;-56
2022/02/12 10:18:41;;;;;;;7.95;2.00;;;;;;;;;;4455496;32;20398;-53
2022/02/12 10:21:10;;;;;;;10.00;2.08;;;;;;;;;;4455473;32;20042;-53
2022/02/12 10:23:45;;;;;;;10.88;1.92;;;;;;;;;;4453867;32;20057;-54
2022/02/12 10:26:14;;;;;;;8.52;2.28;;;;;;;;;;4455532;32;20417;-55
2022/02/12 10:28:45;;;;;;;9.30;2.10;;;;;;;;;;4455651;32;20045;-55
2022/02/12 10:31:14;;;;;;;5.35;1.95;;;;;;;;;;4455664;32;20038;-54
2022/02/12 10:33:44;;;;;;;10.07;2.20;;;;;;;;;;4445730;32;20085;-55
2022/02/12 10:36:16;;;;;;;8.40;2.17;;;;;;;;;;4436539;32;20067;-56
2022/02/12 10:38:49;;;;;;;6.93;2.15;;;;;;;;;;4440016;32;20038;-55
2022/02/12 10:41:19;;;;;;;7.00;1.95;;;;;;;;;;4440130;32;20087;-55
2022/02/12 10:43:54;;;;;;;11.85;2.00;;;;;;;;;;4439890;32;20464;-55
2022/02/12 10:46:23;;;;;;;8.18;1.90;;;;;;;;;;4424501;32;20439;-56
2022/02/12 10:48:53;;;;;;;13.45;2.28;;;;;;;;;;4424536;32;20038;-53
2022/02/12 10:51:22;;;;;;;7.12;1.90;;;;;;;;;;4424272;32;20056;-55
2022/02/12 10:53:59;;;;;;;8.25;1.83;;;;;;;;;;4423654;32;20076;-54
2022/02/12 10:56:43;;;;;;;10.95;2.25;;;;;;;;;;4424438;32;20056;-55
2022/02/12 10:59:16;;;;;;;8.50;2.17;;;;;;;;;;4434459;32;20049;-52
2022/02/12 11:01:45;;;;;;;9.32;1.92;;;;;;;;;;4439489;32;20033;-54
2022/02/12 11:04:17;;;;;;;9.30;1.90;;;;;;;;;;4437947;32;20106;-55
2022/02/12 11:06:49;;;;;;;8.02;2.00;;;;;;;;;;4438783;32;20358;-53
2022/02/12 11:09:20;;;;;;;9.45;2.25;;;;;;;;;;4440159;32;20068;-52
2022/02/12 11:11:49;;;;;;;11.38;2.17;;;;;;;;;;4436954;32;20037;-55
2022/02/12 11:14:18;;;;;;;11.50;2.08;;;;;;;;;;4437891;32;20038;-52
2022/02/12 11:16:47;;;;;;;8.20;2.08;;;;;;;;;;4434852;32;20049;-52
2022/02/12 11:19:16;;;;;;;7.40;2.00;;;;;;;;;;4438485;32;20052;-54
2022/02/12 11:21:44;;;;;;;8.35;1.75;;;;;;;;;;4436814;32;20042;-54
2022/02/12 11:24:14;;;;;;;8.27;1.87;;;;;;;;;;4438000;32;20049;-55
2022/02/12 11:26:43;;;;;;;5.95;1.70;;;;;;;;;;4438335;32;20105;-55
2022/02/12 11:29:40;;;;;;;11.48;1.90;;;;;;;;;;4436928;32;20049;-56
2022/02/12 11:32:12;;;;;;;7.35;2.00;;;;;;;;;;4423162;32;20079;-54
2022/02/12 11:34:42;;;;;;;10.38;2.42;;;;;;;;;;4426957;32;20421;-55
2022/02/12 11:37:14;;;;;;;9.68;2.20;;;;;;;;;;4453503;32;20048;-56
2022/02/12 11:40:02;;;;;;;8.90;2.30;;;;;;;;;;4436860;32;20122;-56
2022/02/12 11:42:41;;;;;;;6.18;1.90;;;;;;;;;;4438187;32;20038;-53
2022/02/12 11:45:26;;;;;;;10.43;2.35;;;;;;;;;;4437811;32;20038;-55
2022/02/12 11:48:11;;;;;;;10.00;2.00;;;;;;;;;;4437578;32;20421;-52
2022/02/12 11:50:44;;;;;;;6.07;2.17;;;;;;;;;;4438168;32;20074;-54
2022/02/12 11:53:33;;;;;;;9.60;2.28;;;;;;;;;;4436724;32;20034;-53
2022/02/12 11:56:11;;;;;;;9.88;2.17;;;;;;;;;;4437841;32;20042;-56
2022/02/12 11:58:42;;;;;;;12.52;2.10;;;;;;;;;;4438271;32;20053;-54
2022/02/12 12:01:27;;;;;;;11.00;2.20;;;;;;;;;;4437787;32;20055;-52
2022/02/12 12:04:02;;;;;;;7.22;2.22;;;;;;;;;;4434302;32;20049;-53
2022/02/12 12:06:31;;;;;;;7.62;2.20;;;;;;;;;;4437791;32;20060;-54
2022/02/12 12:09:13;;;;;;;10.20;2.50;;;;;;;;;;4429702;32;20056;-55
2022/02/12 12:12:05;;;;;;;12.80;2.20;;;;;;;;;;4421977;32;20101;-57
2022/02/12 12:14:34;;;;;;;8.88;2.40;;;;;;;;;;4420735;32;20046;-52
2022/02/12 12:17:05;;;;;;;10.55;2.10;;;;;;;;;;4422855;32;20049;-54
2022/02/12 12:19:34;;;;;;;10.27;2.10;;;;;;;;;;4422672;32;20110;-55
2022/02/12 12:22:03;;;;;;;9.88;2.33;;;;;;;;;;4420187;32;20152;-55
2022/02/12 12:24:32;;;;;;;12.57;2.42;;;;;;;;;;4432831;32;20105;-54
2022/02/12 12:27:00;;;;;;;13.70;2.80;;;;;;;;;;4422149;32;20060;-55
2022/02/12 12:32:16;;;;;;;9.45;2.40;;;;;;;;;;4423758;32;20050;-56
2022/02/12 12:34:50;;;;;;;9.05;2.40;;;;;;;;;;4422267;32;20038;-52
2022/02/12 12:37:19;;;;;;;11.07;2.15;;;;;;;;;;4405538;32;20595;-54
2022/02/12 12:39:48;;;;;;;11.52;2.05;;;;;;;;;;4419224;32;20441;-51
2022/02/12 12:42:18;;;;;;;10.52;2.40;;;;;;;;;;4422372;32;20048;-55
2022/02/12 12:45:06;;;;;;;9.18;2.50;;;;;;;;;;4414058;32;20432;-55
2022/02/12 12:47:35;;;;;;;9.30;2.40;;;;;;;;;;4437582;32;20409;-51
2022/02/12 12:50:04;;;;;;;8.63;2.10;;;;;;;;;;4436951;32;20406;-52
2022/02/12 12:52:35;;;;;;;9.50;2.22;;;;;;;;;;4437138;32;20046;-52
2022/02/12 12:55:08;;;;;;;11.35;2.85;;;;;;;;;;4431796;32;20033;-54
2022/02/12 12:57:43;;;;;;;6.12;2.50;;;;;;;;;;4440118;32;20075;-53
2022/02/12 13:00:14;;;;;;;9.18;2.40;;;;;;;;;;4447298;32;20372;-51
2022/02/12 13:02:51;;;;;;;10.80;2.10;;;;;;;;;;4431755;32;20422;-53
2022/02/12 13:05:29;;;;;;;5.62;2.20;;;;;;;;;;4439406;32;20088;-51
2022/02/12 13:08:02;;;;;;;11.60;2.70;;;;;;;;;;4431336;32;20034;-52
2022/02/12 13:10:31;;;;;;;13.07;2.53;;;;;;;;;;4433720;32;20058;-53
2022/02/12 13:13:20;;;;;;;11.65;2.80;;;;;;;;;;4434371;32;20053;-54
2022/02/12 13:15:48;;;;;;;8.10;2.28;;;;;;;;;;4418973;32;20083;-55
2022/02/12 13:18:17;;;;;;;11.23;2.30;;;;;;;;;;4420930;32;20061;-52
2022/02/12 13:20:46;;;;;;;7.53;2.30;;;;;;;;;;4420406;32;20048;-51
2022/02/12 13:23:17;;;;;;;9.23;2.60;;;;;;;;;;4426414;32;20097;-51
2022/02/12 13:25:48;;;;;;;7.03;2.08;;;;;;;;;;4426356;32;20049;-55
2022/02/12 13:28:17;;;;;;;9.18;2.20;;;;;;;;;;4432062;32;20485;-52
2022/02/12 13:30:49;;;;;;;7.62;2.12;;;;;;;;;;4440299;32;20061;-54
2022/02/12 13:33:22;;;;;;;7.28;2.58;;;;;;;;;;4433296;32;20043;-53
2022/02/12 13:35:51;;;;;;;9.85;2.15;;;;;;;;;;4440371;32;20390;-53
2022/02/12 13:38:20;;;;;;;8.07;2.20;;;;;;;;;;4439153;32;20421;-53
2022/02/12 13:40:54;;;;;;;6.47;2.25;;;;;;;;;;4439882;32;20095;-53
2022/02/12 13:43:28;;;;;;;7.45;2.33;;;;;;;;;;4431672;32;20372;-54
2022/02/12 13:45:58;;;;;;;4.97;2.00;;;;;;;;;;4434380;32;20108;-55
2022/02/12 13:48:38;;;;;;;6.37;2.10;;;;;;;;;;4435772;32;20418;-53
2022/02/12 13:51:08;;;;;;;9.45;2.08;;;;;;;;;;4438514;32;20428;-54
2022/02/12 13:53:43;;;;;;;6.20;2.33;;;;;;;;;;4437765;32;20365;-55
2022/02/12 13:56:12;;;;;;;6.80;2.25;;;;;;;;;;4436271;32;20057;-51
2022/02/12 13:58:42;;;;;;;5.07;1.90;;;;;;;;;;4445019;32;20053;-54
2022/02/12 14:01:10;;;;;;;8.57;2.53;;;;;;;;;;4443007;32;20482;-52
2022/02/12 14:03:46;;;;;;;6.30;2.40;;;;;;;;;;4424862;32;20112;-54
2022/02/12 14:06:17;;;;;;;6.15;2.15;;;;;;;;;;4424646;32;20056;-52
2022/02/12 14:08:45;;;;;;;6.78;2.25;;;;;;;;;;4434711;32;20095;-51
2022/02/12 14:11:14;;;;;;;9.23;1.77;;;;;;;;;;4439242;32;20378;-51
2022/02/12 14:13:42;;;;;;;6.50;2.08;;;;;;;;;;4431080;32;20041;-52
2022/02/12 14:16:11;;;;;;;6.55;1.87;;;;;;;;;;4436704;32;20451;-53
2022/02/12 14:18:39;;;;;;;7.07;2.30;;;;;;;;;;4437012;32;20079;-52
2022/02/12 14:21:09;;;;;;;6.95;2.05;;;;;;;;;;4439587;32;20068;-55
2022/02/12 14:23:38;;;;;;;5.20;1.85;;;;;;;;;;4439000;32;20026;-51
2022/02/12 14:26:06;;;;;;;7.78;2.10;;;;;;;;;;4437826;32;20055;-52
2022/02/12 14:28:34;;;;;;;7.22;1.83;;;;;;;;;;4426559;32;20042;-54
2022/02/12 14:31:03;;;;;;;5.12;2.00;;;;;;;;;;4425053;32;20441;-52
2022/02/12 14:33:34;;;;;;;6.53;1.75;;;;;;;;;;4428291;32;20428;-53
2022/02/12 14:36:03;;;;;;;6.87;1.60;;;;;;;;;;4435871;32;20128;-53
2022/02/12 14:38:32;;;;;;;4.70;1.60;;;;;;;;;;4435669;32;20030;-54
2022/02/12 14:41:00;;;;;;;6.47;2.00;;;;;;;;;;4435811;32;20102;-54
2022/02/12 14:43:32;;;;;;;6.22;1.50;;;;;;;;;;4434593;32;20217;-52
2022/02/12 14:46:00;;;;;;;6.37;2.00;;;;;;;;;;4439336;32;20467;-55
2022/02/12 14:48:29;;;;;;;4.43;1.80;;;;;;;;;;4436289;32;20096;-55
2022/02/12 14:50:58;;;;;;;8.68;1.80;;;;;;;;;;4439359;32;20075;-52
2022/02/12 14:53:41;;;;;;;3.78;1.70;;;;;;;;;;4438704;32;20060;-51
2022/02/12 14:56:09;;;;;;;5.47;1.73;;;;;;;;;;4438453;32;20460;-53
2022/02/12 14:58:37;;;;;;;5.70;1.50;;;;;;;;;;4439261;32;20114;-56
2022/02/12 15:01:06;;;;;;;4.10;1.75;;;;;;;;;;4439194;32;20038;-52
2022/02/12 15:03:35;;;;;;;5.18;1.85;;;;;;;;;;4439412;32;20060;-56
2022/02/12 15:06:03;;;;;;;3.72;1.42;;;;;;;;;;4438467;32;20372;-56
2022/02/12 15:08:32;;;;;;;8.20;1.92;;;;;;;;;;4439029;32;20048;-54
2022/02/12 15:11:00;;;;;;;5.72;1.55;;;;;;;;;;4439175;32;20390;-52
2022/02/12 15:13:29;;;;;;;6.45;1.75;;;;;;;;;;4435998;32;20092;-53